sensor_id;sensor_type;location;lat;lon;timestamp;P1;P2;P0
85148;PMS7003;75507;52.464;17.180;2024-03-08T00:00:34;73.75;60.75;34.75
85148;PMS7003;75507;52.464;17.180;2024-03-08T00:01:35;76.25;64.50;36.50
85148;PMS7003;75507;52.464;17.180;2024-03-08T00:02:38;78.00;67.33;35.00
85148;PMS7003;75507;52.464;17.180;2024-03-08T00:03:39;77.20;65.40;36.60
85148;PMS7003;75507;52.464;17.180;2024-03-08T00:04:40;73.50;60.00;35.50
85148;PMS7003;75507;52.464;17.180;2024-03-08T00:05:40;72.00;60.00;33.67
85148;PMS7003;75507;52.464;17.180;2024-03-08T00:06:41;75.00;61.80;35.00
85148;PMS7003;75507;52.464;17.180;2024-03-08T00:07:42;76.25;60.75;35.00
85148;PMS7003;75507;52.464;17.180;2024-03-08T00:08:43;73.80;60.00;36.20
85148;PMS7003;75507;52.464;17.180;2024-03-08T00:09:43;70.67;57.33;33.67
85148;PMS7003;75507;52.464;17.180;2024-03-08T00:10:43;73.25;57.00;34.25
85148;PMS7003;75507;52.464;17.180;2024-03-08T00:11:44;73.67;58.67;34.33
85148;PMS7003;75507;52.464;17.180;2024-03-08T00:12:44;71.00;58.00;34.00
85148;PMS7003;75507;52.464;17.180;2024-03-08T00:13:46;71.80;57.40;34.40
85148;PMS7003;75507;52.464;17.180;2024-03-08T00:14:46;71.75;56.50;34.00
85148;PMS7003;75507;52.464;17.180;2024-03-08T00:15:47;70.25;57.25;33.75
85148;PMS7003;75507;52.464;17.180;2024-03-08T00:16:47;71.67;57.67;34.67
85148;PMS7003;75507;52.464;17.180;2024-03-08T00:17:48;70.00;54.25;34.25
85148;PMS7003;75507;52.464;17.180;2024-03-08T00:18:48;70.75;57.00;34.75
85148;PMS7003;75507;52.464;17.180;2024-03-08T00:19:49;69.75;51.75;34.25
85148;PMS7003;75507;52.464;17.180;2024-03-08T00:20:52;71.00;53.20;34.00
85148;PMS7003;75507;52.464;17.180;2024-03-08T00:21:52;71.00;56.33;34.00
85148;PMS7003;75507;52.464;17.180;2024-03-08T00:22:53;69.67;55.67;34.33
85148;PMS7003;75507;52.464;17.180;2024-03-08T00:23:53;69.50;53.00;34.00
85148;PMS7003;75507;52.464;17.180;2024-03-08T00:24:56;67.75;52.00;32.25
85148;PMS7003;75507;52.464;17.180;2024-03-08T00:25:56;69.25;53.75;33.50
85148;PMS7003;75507;52.464;17.180;2024-03-08T00:26:57;71.00;55.00;34.00
85148;PMS7003;75507;52.464;17.180;2024-03-08T00:27:58;69.50;52.75;33.50
85148;PMS7003;75507;52.464;17.180;2024-03-08T00:28:59;72.80;55.00;34.00
85148;PMS7003;75507;52.464;17.180;2024-03-08T00:30:00;74.50;55.50;34.50
85148;PMS7003;75507;52.464;17.180;2024-03-08T00:31:00;69.00;55.33;33.33
85148;PMS7003;75507;52.464;17.180;2024-03-08T00:32:01;69.50;55.50;34.25
85148;PMS7003;75507;52.464;17.180;2024-03-08T00:33:01;70.75;55.00;35.00
85148;PMS7003;75507;52.464;17.180;2024-03-08T00:34:01;71.50;57.00;34.00
85148;PMS7003;75507;52.464;17.180;2024-03-08T00:35:02;68.75;52.50;33.00
85148;PMS7003;75507;52.464;17.180;2024-03-08T00:36:02;67.00;53.00;34.00
85148;PMS7003;75507;52.464;17.180;2024-03-08T00:37:03;70.25;53.50;34.00
85148;PMS7003;75507;52.464;17.180;2024-03-08T00:38:04;74.50;56.75;34.50
85148;PMS7003;75507;52.464;17.180;2024-03-08T00:39:04;72.00;55.67;34.33
85148;PMS7003;75507;52.464;17.180;2024-03-08T00:40:07;67.60;52.80;32.60
85148;PMS7003;75507;52.464;17.180;2024-03-08T00:41:09;71.25;57.75;33.00
85148;PMS7003;75507;52.464;17.180;2024-03-08T00:42:09;72.00;55.00;34.00
85148;PMS7003;75507;52.464;17.180;2024-03-08T00:43:10;69.75;53.25;33.00
85148;PMS7003;75507;52.464;17.180;2024-03-08T00:44:10;67.67;51.67;34.00
85148;PMS7003;75507;52.464;17.180;2024-03-08T00:45:11;69.67;52.33;33.00
85148;PMS7003;75507;52.464;17.180;2024-03-08T00:46:11;66.75;53.50;33.00
85148;PMS7003;75507;52.464;17.180;2024-03-08T00:47:12;70.50;55.75;35.00
85148;PMS7003;75507;52.464;17.180;2024-03-08T00:48:12;72.00;56.00;35.00
85148;PMS7003;75507;52.464;17.180;2024-03-08T00:49:12;70.75;53.25;33.25
85148;PMS7003;75507;52.464;17.180;2024-03-08T00:50:13;71.50;56.25;33.00
85148;PMS7003;75507;52.464;17.180;2024-03-08T00:51:13;74.50;56.50;34.50
85148;PMS7003;75507;52.464;17.180;2024-03-08T00:52:15;69.00;55.40;33.80
85148;PMS7003;75507;52.464;17.180;2024-03-08T00:53:15;70.67;54.67;34.00
85148;PMS7003;75507;52.464;17.180;2024-03-08T00:54:16;73.00;57.00;34.00
85148;PMS7003;75507;52.464;17.180;2024-03-08T00:55:17;66.33;51.67;32.67
85148;PMS7003;75507;52.464;17.180;2024-03-08T00:56:17;70.33;53.67;32.67
85148;PMS7003;75507;52.464;17.180;2024-03-08T00:57:17;72.33;52.33;32.00
85148;PMS7003;75507;52.464;17.180;2024-03-08T00:58:18;69.75;52.75;32.25
85148;PMS7003;75507;52.464;17.180;2024-03-08T00:59:18;68.25;51.50;33.00
85148;PMS7003;75507;52.464;17.180;2024-03-08T01:00:18;68.00;51.00;32.00
85148;PMS7003;75507;52.464;17.180;2024-03-08T01:01:20;66.25;50.50;32.00
85148;PMS7003;75507;52.464;17.180;2024-03-08T01:02:20;69.67;52.00;33.00
85148;PMS7003;75507;52.464;17.180;2024-03-08T01:03:23;67.60;52.80;33.80
85148;PMS7003;75507;52.464;17.180;2024-03-08T01:04:23;67.00;53.00;34.00
85148;PMS7003;75507;52.464;17.180;2024-03-08T01:05:25;69.20;53.80;32.40
85148;PMS7003;75507;52.464;17.180;2024-03-08T01:06:26;66.75;50.50;32.75
85148;PMS7003;75507;52.464;17.180;2024-03-08T01:07:27;69.20;51.00;31.40
85148;PMS7003;75507;52.464;17.180;2024-03-08T01:08:27;70.25;52.50;32.50
85148;PMS7003;75507;52.464;17.180;2024-03-08T01:09:28;70.00;52.75;33.00
85148;PMS7003;75507;52.464;17.180;2024-03-08T01:10:28;68.75;55.00;33.00
85148;PMS7003;75507;52.464;17.180;2024-03-08T01:11:29;64.75;51.75;33.00
85148;PMS7003;75507;52.464;17.180;2024-03-08T01:12:29;70.25;53.00;33.50
85148;PMS7003;75507;52.464;17.180;2024-03-08T01:13:29;66.50;51.75;33.00
85148;PMS7003;75507;52.464;17.180;2024-03-08T01:14:30;69.50;51.75;32.00
85148;PMS7003;75507;52.464;17.180;2024-03-08T01:15:30;68.50;54.00;33.50
85148;PMS7003;75507;52.464;17.180;2024-03-08T01:16:31;69.25;54.50;34.25
85148;PMS7003;75507;52.464;17.180;2024-03-08T01:17:33;67.20;51.40;32.00
85148;PMS7003;75507;52.464;17.180;2024-03-08T01:18:33;69.50;52.00;31.75
85148;PMS7003;75507;52.464;17.180;2024-03-08T01:19:33;67.75;51.50;32.50
85148;PMS7003;75507;52.464;17.180;2024-03-08T01:20:34;71.00;53.50;33.25
85148;PMS7003;75507;52.464;17.180;2024-03-08T01:21:34;68.67;53.33;33.33
85148;PMS7003;75507;52.464;17.180;2024-03-08T01:22:34;65.25;52.00;33.00
85148;PMS7003;75507;52.464;17.180;2024-03-08T01:23:35;67.00;50.67;33.00
85148;PMS7003;75507;52.464;17.180;2024-03-08T01:24:35;71.00;56.00;32.50
85148;PMS7003;75507;52.464;17.180;2024-03-08T01:25:35;71.00;51.33;32.00
85148;PMS7003;75507;52.464;17.180;2024-03-08T01:26:36;68.00;52.25;33.00
85148;PMS7003;75507;52.464;17.180;2024-03-08T01:27:36;70.75;52.25;32.75
85148;PMS7003;75507;52.464;17.180;2024-03-08T01:28:36;67.00;50.25;32.50
85148;PMS7003;75507;52.464;17.180;2024-03-08T01:29:37;68.33;51.33;32.67
85148;PMS7003;75507;52.464;17.180;2024-03-08T01:30:37;65.00;50.33;32.00
85148;PMS7003;75507;52.464;17.180;2024-03-08T01:31:38;67.50;51.25;32.00
85148;PMS7003;75507;52.464;17.180;2024-03-08T01:32:38;66.00;51.25;33.00
85148;PMS7003;75507;52.464;17.180;2024-03-08T01:33:39;66.00;51.00;32.00
85148;PMS7003;75507;52.464;17.180;2024-03-08T01:34:40;70.25;51.50;32.00
85148;PMS7003;75507;52.464;17.180;2024-03-08T01:35:40;67.75;51.00;32.75
85148;PMS7003;75507;52.464;17.180;2024-03-08T01:36:41;65.00;52.00;31.33
85148;PMS7003;75507;52.464;17.180;2024-03-08T01:37:41;66.50;51.00;32.00
85148;PMS7003;75507;52.464;17.180;2024-03-08T01:38:42;66.50;50.50;31.75
85148;PMS7003;75507;52.464;17.180;2024-03-08T01:39:42;66.75;53.00;31.00
85148;PMS7003;75507;52.464;17.180;2024-03-08T01:40:43;69.33;52.00;32.00
85148;PMS7003;75507;52.464;17.180;2024-03-08T01:41:43;64.33;49.00;31.67
85148;PMS7003;75507;52.464;17.180;2024-03-08T01:42:44;67.75;51.25;31.00
85148;PMS7003;75507;52.464;17.180;2024-03-08T01:43:44;67.75;51.50;32.50
85148;PMS7003;75507;52.464;17.180;2024-03-08T01:44:45;67.00;49.50;31.50
85148;PMS7003;75507;52.464;17.180;2024-03-08T01:45:46;64.75;50.75;32.00
85148;PMS7003;75507;52.464;17.180;2024-03-08T01:46:46;63.00;50.60;32.00
85148;PMS7003;75507;52.464;17.180;2024-03-08T01:47:48;64.50;51.00;31.00
85148;PMS7003;75507;52.464;17.180;2024-03-08T01:48:48;69.00;51.67;33.00
85148;PMS7003;75507;52.464;17.180;2024-03-08T01:49:50;69.50;53.25;33.00
85148;PMS7003;75507;52.464;17.180;2024-03-08T01:50:51;71.00;52.00;32.00
85148;PMS7003;75507;52.464;17.180;2024-03-08T01:51:52;65.00;51.75;32.75
85148;PMS7003;75507;52.464;17.180;2024-03-08T01:52:52;61.33;49.00;31.00
85148;PMS7003;75507;52.464;17.180;2024-03-08T01:53:53;70.75;51.50;32.50
85148;PMS7003;75507;52.464;17.180;2024-03-08T01:54:53;70.50;50.00;30.50
85148;PMS7003;75507;52.464;17.180;2024-03-08T01:55:55;64.67;50.00;32.67
85148;PMS7003;75507;52.464;17.180;2024-03-08T01:56:57;66.40;50.20;32.20
85148;PMS7003;75507;52.464;17.180;2024-03-08T01:57:58;61.00;48.40;30.80
85148;PMS7003;75507;52.464;17.180;2024-03-08T01:58:59;63.25;50.00;32.75
85148;PMS7003;75507;52.464;17.180;2024-03-08T02:00:00;64.00;51.20;31.20
85148;PMS7003;75507;52.464;17.180;2024-03-08T02:01:05;66.75;50.25;32.50
85148;PMS7003;75507;52.464;17.180;2024-03-08T02:02:06;65.75;51.00;31.75
85148;PMS7003;75507;52.464;17.180;2024-03-08T02:03:08;69.25;52.00;32.00
85148;PMS7003;75507;52.464;17.180;2024-03-08T02:04:08;68.00;50.25;31.00
85148;PMS7003;75507;52.464;17.180;2024-03-08T02:05:09;69.75;50.75;30.75
85148;PMS7003;75507;52.464;17.180;2024-03-08T02:06:11;63.25;49.50;32.00
85148;PMS7003;75507;52.464;17.180;2024-03-08T02:07:11;66.00;51.50;33.00
85148;PMS7003;75507;52.464;17.180;2024-03-08T02:08:11;66.00;50.67;32.33
85148;PMS7003;75507;52.464;17.180;2024-03-08T02:09:14;67.25;52.00;34.00
85148;PMS7003;75507;52.464;17.180;2024-03-08T02:10:14;66.00;50.25;31.50
85148;PMS7003;75507;52.464;17.180;2024-03-08T02:11:14;67.25;51.75;32.00
85148;PMS7003;75507;52.464;17.180;2024-03-08T02:12:15;65.75;52.25;33.00
85148;PMS7003;75507;52.464;17.180;2024-03-08T02:13:16;62.00;48.75;32.00
85148;PMS7003;75507;52.464;17.180;2024-03-08T02:14:17;71.50;53.25;33.00
85148;PMS7003;75507;52.464;17.180;2024-03-08T02:15:18;66.80;50.60;31.80
85148;PMS7003;75507;52.464;17.180;2024-03-08T02:16:20;67.00;51.00;32.75
85148;PMS7003;75507;52.464;17.180;2024-03-08T02:17:21;69.80;52.00;33.00
85148;PMS7003;75507;52.464;17.180;2024-03-08T02:18:22;67.00;51.67;33.00
85148;PMS7003;75507;52.464;17.180;2024-03-08T02:19:23;64.80;50.20;31.80
85148;PMS7003;75507;52.464;17.180;2024-03-08T02:20:23;67.25;51.25;33.00
85148;PMS7003;75507;52.464;17.180;2024-03-08T02:21:23;70.25;52.50;32.50
85148;PMS7003;75507;52.464;17.180;2024-03-08T02:22:24;65.25;51.25;32.75
85148;PMS7003;75507;52.464;17.180;2024-03-08T02:23:25;65.80;50.80;32.40
85148;PMS7003;75507;52.464;17.180;2024-03-08T02:24:26;71.20;55.40;32.60
85148;PMS7003;75507;52.464;17.180;2024-03-08T02:25:26;66.25;50.00;32.50
85148;PMS7003;75507;52.464;17.180;2024-03-08T02:26:26;66.25;50.00;32.00
85148;PMS7003;75507;52.464;17.180;2024-03-08T02:27:27;66.00;51.00;31.00
85148;PMS7003;75507;52.464;17.180;2024-03-08T02:28:28;68.25;51.00;33.00
85148;PMS7003;75507;52.464;17.180;2024-03-08T02:29:29;68.00;51.80;32.60
85148;PMS7003;75507;52.464;17.180;2024-03-08T02:30:30;69.60;52.60;33.20
85148;PMS7003;75507;52.464;17.180;2024-03-08T02:31:30;64.75;52.00;33.00
85148;PMS7003;75507;52.464;17.180;2024-03-08T02:32:31;65.67;51.00;32.00
85148;PMS7003;75507;52.464;17.180;2024-03-08T02:33:32;69.80;52.00;32.00
85148;PMS7003;75507;52.464;17.180;2024-03-08T02:34:33;69.00;51.67;31.33
85148;PMS7003;75507;52.464;17.180;2024-03-08T02:35:33;68.00;51.25;31.50
85148;PMS7003;75507;52.464;17.180;2024-03-08T02:36:33;66.67;50.67;31.33
85148;PMS7003;75507;52.464;17.180;2024-03-08T02:37:34;67.50;50.75;32.00
85148;PMS7003;75507;52.464;17.180;2024-03-08T02:38:35;66.00;50.00;31.00
85148;PMS7003;75507;52.464;17.180;2024-03-08T02:39:35;67.25;52.50;33.25
85148;PMS7003;75507;52.464;17.180;2024-03-08T02:40:35;65.00;50.00;31.33
85148;PMS7003;75507;52.464;17.180;2024-03-08T02:41:36;66.25;51.00;31.75
85148;PMS7003;75507;52.464;17.180;2024-03-08T02:42:37;66.25;51.00;32.00
85148;PMS7003;75507;52.464;17.180;2024-03-08T02:43:37;67.25;50.00;30.75
85148;PMS7003;75507;52.464;17.180;2024-03-08T02:44:38;66.00;51.00;31.25
85148;PMS7003;75507;52.464;17.180;2024-03-08T02:45:38;67.75;52.00;32.00
85148;PMS7003;75507;52.464;17.180;2024-03-08T02:46:38;67.00;51.25;34.00
85148;PMS7003;75507;52.464;17.180;2024-03-08T02:47:39;65.00;51.25;32.25
85148;PMS7003;75507;52.464;17.180;2024-03-08T02:48:39;67.25;52.75;33.00
85148;PMS7003;75507;52.464;17.180;2024-03-08T02:49:40;65.00;51.25;33.25
85148;PMS7003;75507;52.464;17.180;2024-03-08T02:50:40;69.00;51.50;32.00
85148;PMS7003;75507;52.464;17.180;2024-03-08T02:51:42;67.75;51.00;31.00
85148;PMS7003;75507;52.464;17.180;2024-03-08T02:52:42;68.00;50.25;30.25
85148;PMS7003;75507;52.464;17.180;2024-03-08T02:53:43;64.67;51.00;31.00
85148;PMS7003;75507;52.464;17.180;2024-03-08T02:54:43;70.25;53.00;33.00
85148;PMS7003;75507;52.464;17.180;2024-03-08T02:55:46;68.00;51.20;33.00
85148;PMS7003;75507;52.464;17.180;2024-03-08T02:56:46;66.75;52.00;32.00
85148;PMS7003;75507;52.464;17.180;2024-03-08T02:57:47;67.00;52.00;32.50
85148;PMS7003;75507;52.464;17.180;2024-03-08T02:58:47;65.75;50.75;31.75
85148;PMS7003;75507;52.464;17.180;2024-03-08T02:59:48;68.20;51.00;32.60
85148;PMS7003;75507;52.464;17.180;2024-03-08T03:00:48;65.67;51.00;33.00
85148;PMS7003;75507;52.464;17.180;2024-03-08T03:01:49;62.00;50.00;31.75
85148;PMS7003;75507;52.464;17.180;2024-03-08T03:02:50;69.50;52.50;32.00
85148;PMS7003;75507;52.464;17.180;2024-03-08T03:03:53;65.25;50.25;31.50
85148;PMS7003;75507;52.464;17.180;2024-03-08T03:04:54;65.00;50.50;32.00
85148;PMS7003;75507;52.464;17.180;2024-03-08T03:05:55;66.75;52.00;32.50
85148;PMS7003;75507;52.464;17.180;2024-03-08T03:06:56;69.00;50.00;31.67
85148;PMS7003;75507;52.464;17.180;2024-03-08T03:07:56;64.00;51.25;33.00
85148;PMS7003;75507;52.464;17.180;2024-03-08T03:08:58;68.75;52.75;32.75
85148;PMS7003;75507;52.464;17.180;2024-03-08T03:09:58;67.33;52.00;32.00
85148;PMS7003;75507;52.464;17.180;2024-03-08T03:11:00;68.80;51.40;32.80
85148;PMS7003;75507;52.464;17.180;2024-03-08T03:12:01;65.40;50.80;31.80
85148;PMS7003;75507;52.464;17.180;2024-03-08T03:13:02;68.00;51.50;32.75
85148;PMS7003;75507;52.464;17.180;2024-03-08T03:14:04;66.75;51.00;31.75
85148;PMS7003;75507;52.464;17.180;2024-03-08T03:15:04;66.25;51.00;33.00
85148;PMS7003;75507;52.464;17.180;2024-03-08T03:16:06;65.25;49.25;31.25
85148;PMS7003;75507;52.464;17.180;2024-03-08T03:17:07;69.00;52.25;32.50
85148;PMS7003;75507;52.464;17.180;2024-03-08T03:18:08;67.50;52.50;31.25
85148;PMS7003;75507;52.464;17.180;2024-03-08T03:19:08;64.00;50.67;32.67
85148;PMS7003;75507;52.464;17.180;2024-03-08T03:20:09;67.50;51.50;33.00
85148;PMS7003;75507;52.464;17.180;2024-03-08T03:21:10;64.20;51.00;31.40
85148;PMS7003;75507;52.464;17.180;2024-03-08T03:22:10;69.00;50.25;32.50
85148;PMS7003;75507;52.464;17.180;2024-03-08T03:23:10;70.33;52.00;33.00
85148;PMS7003;75507;52.464;17.180;2024-03-08T03:24:14;68.60;52.40;32.00
85148;PMS7003;75507;52.464;17.180;2024-03-08T03:25:16;70.25;52.00;32.25
85148;PMS7003;75507;52.464;17.180;2024-03-08T03:26:23;64.25;49.25;30.75
85148;PMS7003;75507;52.464;17.180;2024-03-08T03:27:23;68.25;51.50;32.50
85148;PMS7003;75507;52.464;17.180;2024-03-08T03:28:24;67.50;50.50;32.00
85148;PMS7003;75507;52.464;17.180;2024-03-08T03:29:25;68.67;52.33;33.00
85148;PMS7003;75507;52.464;17.180;2024-03-08T03:30:25;69.75;52.00;33.00
85148;PMS7003;75507;52.464;17.180;2024-03-08T03:31:32;66.75;49.00;30.25
85148;PMS7003;75507;52.464;17.180;2024-03-08T03:32:33;69.00;52.00;32.67
85148;PMS7003;75507;52.464;17.180;2024-03-08T03:33:36;63.75;49.00;32.00
85148;PMS7003;75507;52.464;17.180;2024-03-08T03:34:37;68.50;50.75;32.50
85148;PMS7003;75507;52.464;17.180;2024-03-08T03:35:38;64.00;50.00;32.00
85148;PMS7003;75507;52.464;17.180;2024-03-08T03:36:39;65.40;51.60;33.00
85148;PMS7003;75507;52.464;17.180;2024-03-08T03:37:42;65.50;51.00;32.25
85148;PMS7003;75507;52.464;17.180;2024-03-08T03:38:45;67.50;52.00;30.25
85148;PMS7003;75507;52.464;17.180;2024-03-08T03:39:45;66.75;51.75;33.50
85148;PMS7003;75507;52.464;17.180;2024-03-08T03:40:48;70.00;51.40;32.40
85148;PMS7003;75507;52.464;17.180;2024-03-08T03:41:52;67.25;53.00;34.00
85148;PMS7003;75507;52.464;17.180;2024-03-08T03:42:52;65.00;50.00;31.00
85148;PMS7003;75507;52.464;17.180;2024-03-08T03:43:53;68.00;52.00;31.50
85148;PMS7003;75507;52.464;17.180;2024-03-08T03:44:53;69.67;52.33;33.00
85148;PMS7003;75507;52.464;17.180;2024-03-08T03:45:53;64.67;51.33;31.67
85148;PMS7003;75507;52.464;17.180;2024-03-08T03:46:54;68.25;51.00;33.00
85148;PMS7003;75507;52.464;17.180;2024-03-08T03:47:54;65.00;50.75;32.25
85148;PMS7003;75507;52.464;17.180;2024-03-08T03:48:55;63.75;51.00;31.50
85148;PMS7003;75507;52.464;17.180;2024-03-08T03:49:55;69.50;52.00;32.25
85148;PMS7003;75507;52.464;17.180;2024-03-08T03:50:56;64.25;49.25;31.75
85148;PMS7003;75507;52.464;17.180;2024-03-08T03:51:56;68.00;52.00;32.33
85148;PMS7003;75507;52.464;17.180;2024-03-08T03:52:56;69.00;55.00;32.67
85148;PMS7003;75507;52.464;17.180;2024-03-08T03:53:57;69.75;52.75;33.00
85148;PMS7003;75507;52.464;17.180;2024-03-08T03:54:57;67.25;52.75;33.25
85148;PMS7003;75507;52.464;17.180;2024-03-08T03:55:58;65.25;52.00;32.00
85148;PMS7003;75507;52.464;17.180;2024-03-08T03:56:59;67.00;53.00;33.00
85148;PMS7003;75507;52.464;17.180;2024-03-08T03:58:00;65.00;52.25;33.25
85148;PMS7003;75507;52.464;17.180;2024-03-08T03:59:01;67.50;52.25;33.25
85148;PMS7003;75507;52.464;17.180;2024-03-08T04:00:01;65.00;52.00;33.33
85148;PMS7003;75507;52.464;17.180;2024-03-08T04:01:04;70.00;51.80;33.00
85148;PMS7003;75507;52.464;17.180;2024-03-08T04:02:04;65.20;51.20;33.00
85148;PMS7003;75507;52.464;17.180;2024-03-08T04:03:05;66.25;51.25;32.00
85148;PMS7003;75507;52.464;17.180;2024-03-08T04:04:05;68.67;53.00;34.00
85148;PMS7003;75507;52.464;17.180;2024-03-08T04:05:06;63.75;51.75;32.75
85148;PMS7003;75507;52.464;17.180;2024-03-08T04:06:07;70.00;51.00;33.50
85148;PMS7003;75507;52.464;17.180;2024-03-08T04:07:08;70.00;51.33;33.33
85148;PMS7003;75507;52.464;17.180;2024-03-08T04:08:09;66.75;53.75;33.75
85148;PMS7003;75507;52.464;17.180;2024-03-08T04:09:10;69.33;51.33;31.00
85148;PMS7003;75507;52.464;17.180;2024-03-08T04:10:11;67.80;50.00;31.80
85148;PMS7003;75507;52.464;17.180;2024-03-08T04:11:12;70.20;53.40;32.60
85148;PMS7003;75507;52.464;17.180;2024-03-08T04:12:12;66.25;50.75;31.50
85148;PMS7003;75507;52.464;17.180;2024-03-08T04:13:12;67.67;53.00;32.33
85148;PMS7003;75507;52.464;17.180;2024-03-08T04:14:13;67.75;52.25;33.00
85148;PMS7003;75507;52.464;17.180;2024-03-08T04:15:13;67.00;51.67;32.00
85148;PMS7003;75507;52.464;17.180;2024-03-08T04:16:14;71.50;51.50;31.75
85148;PMS7003;75507;52.464;17.180;2024-03-08T04:17:14;69.00;51.33;33.33
85148;PMS7003;75507;52.464;17.180;2024-03-08T04:18:15;69.25;51.00;33.00
85148;PMS7003;75507;52.464;17.180;2024-03-08T04:19:15;67.50;52.75;33.75
85148;PMS7003;75507;52.464;17.180;2024-03-08T04:20:15;64.33;52.00;33.00
85148;PMS7003;75507;52.464;17.180;2024-03-08T04:21:17;69.75;57.25;34.00
85148;PMS7003;75507;52.464;17.180;2024-03-08T04:22:19;68.00;53.50;33.25
85148;PMS7003;75507;52.464;17.180;2024-03-08T04:23:19;62.50;48.25;31.50
85148;PMS7003;75507;52.464;17.180;2024-03-08T04:24:19;68.50;52.00;33.00
85148;PMS7003;75507;52.464;17.180;2024-03-08T04:25:20;68.50;53.50;32.50
85148;PMS7003;75507;52.464;17.180;2024-03-08T04:26:21;64.00;49.50;32.00
85148;PMS7003;75507;52.464;17.180;2024-03-08T04:27:21;67.75;52.00;34.00
85148;PMS7003;75507;52.464;17.180;2024-03-08T04:28:22;68.67;53.00;33.00
85148;PMS7003;75507;52.464;17.180;2024-03-08T04:29:22;72.75;57.75;34.00
85148;PMS7003;75507;52.464;17.180;2024-03-08T04:30:22;68.50;52.00;33.00
85148;PMS7003;75507;52.464;17.180;2024-03-08T04:31:23;72.25;52.50;32.00
85148;PMS7003;75507;52.464;17.180;2024-03-08T04:32:23;68.75;53.75;32.25
85148;PMS7003;75507;52.464;17.180;2024-03-08T04:33:23;73.00;53.00;33.00
85148;PMS7003;75507;52.464;17.180;2024-03-08T04:34:23;70.25;53.00;33.25
85148;PMS7003;75507;52.464;17.180;2024-03-08T04:35:24;66.00;52.00;33.00
85148;PMS7003;75507;52.464;17.180;2024-03-08T04:36:25;70.00;55.00;33.00
85148;PMS7003;75507;52.464;17.180;2024-03-08T04:37:26;71.00;55.33;34.00
85148;PMS7003;75507;52.464;17.180;2024-03-08T04:38:26;68.33;52.33;32.67
85148;PMS7003;75507;52.464;17.180;2024-03-08T04:39:26;69.00;53.00;34.00
85148;PMS7003;75507;52.464;17.180;2024-03-08T04:40:30;66.80;52.40;33.00
85148;PMS7003;75507;52.464;17.180;2024-03-08T04:41:31;67.25;52.75;33.75
85148;PMS7003;75507;52.464;17.180;2024-03-08T04:42:34;68.40;54.00;34.00
85148;PMS7003;75507;52.464;17.180;2024-03-08T04:43:35;68.25;54.50;35.00
85148;PMS7003;75507;52.464;17.180;2024-03-08T04:44:36;69.20;53.60;33.80
85148;PMS7003;75507;52.464;17.180;2024-03-08T04:45:37;69.60;52.80;32.60
85148;PMS7003;75507;52.464;17.180;2024-03-08T04:46:39;69.60;52.40;33.00
85148;PMS7003;75507;52.464;17.180;2024-03-08T04:47:39;72.00;57.00;33.00
85148;PMS7003;75507;52.464;17.180;2024-03-08T04:48:40;65.00;51.25;32.50
85148;PMS7003;75507;52.464;17.180;2024-03-08T04:49:42;70.50;53.00;34.00
85148;PMS7003;75507;52.464;17.180;2024-03-08T04:50:42;69.00;54.00;33.00
85148;PMS7003;75507;52.464;17.180;2024-03-08T04:51:44;71.75;55.00;33.00
85148;PMS7003;75507;52.464;17.180;2024-03-08T04:52:45;70.33;53.00;33.67
85148;PMS7003;75507;52.464;17.180;2024-03-08T04:53:46;70.20;51.20;32.00
85148;PMS7003;75507;52.464;17.180;2024-03-08T04:54:46;69.25;52.25;33.50
85148;PMS7003;75507;52.464;17.180;2024-03-08T04:55:46;66.00;54.00;32.75
85148;PMS7003;75507;52.464;17.180;2024-03-08T04:56:47;71.25;53.00;34.00
85148;PMS7003;75507;52.464;17.180;2024-03-08T04:57:47;70.75;56.50;33.00
85148;PMS7003;75507;52.464;17.180;2024-03-08T04:58:48;70.60;54.60;32.80
85148;PMS7003;75507;52.464;17.180;2024-03-08T04:59:49;71.60;52.80;34.00
85148;PMS7003;75507;52.464;17.180;2024-03-08T05:00:49;68.33;54.00;32.33
85148;PMS7003;75507;52.464;17.180;2024-03-08T05:01:50;68.80;53.00;34.00
85148;PMS7003;75507;52.464;17.180;2024-03-08T05:02:51;70.25;55.25;33.50
85148;PMS7003;75507;52.464;17.180;2024-03-08T05:03:53;66.50;51.25;32.25
85148;PMS7003;75507;52.464;17.180;2024-03-08T05:04:55;67.75;51.00;33.50
85148;PMS7003;75507;52.464;17.180;2024-03-08T05:05:55;70.25;53.75;33.00
85148;PMS7003;75507;52.464;17.180;2024-03-08T05:06:56;66.75;51.75;33.75
85148;PMS7003;75507;52.464;17.180;2024-03-08T05:07:57;69.50;52.00;33.00
85148;PMS7003;75507;52.464;17.180;2024-03-08T05:08:57;65.50;51.25;33.00
85148;PMS7003;75507;52.464;17.180;2024-03-08T05:09:58;67.67;54.33;34.00
85148;PMS7003;75507;52.464;17.180;2024-03-08T05:10:59;71.40;53.60;33.40
85148;PMS7003;75507;52.464;17.180;2024-03-08T05:12:02;69.60;54.00;33.20
85148;PMS7003;75507;52.464;17.180;2024-03-08T05:13:03;68.25;52.00;33.00
85148;PMS7003;75507;52.464;17.180;2024-03-08T05:14:03;70.00;53.00;32.67
85148;PMS7003;75507;52.464;17.180;2024-03-08T05:15:04;68.25;53.00;34.00
85148;PMS7003;75507;52.464;17.180;2024-03-08T05:16:05;70.00;55.20;33.40
85148;PMS7003;75507;52.464;17.180;2024-03-08T05:17:07;70.60;53.40;33.80
85148;PMS7003;75507;52.464;17.180;2024-03-08T05:18:07;69.75;56.25;35.00
85148;PMS7003;75507;52.464;17.180;2024-03-08T05:19:11;68.40;54.20;32.60
85148;PMS7003;75507;52.464;17.180;2024-03-08T05:20:11;68.75;52.50;34.00
85148;PMS7003;75507;52.464;17.180;2024-03-08T05:21:13;66.50;51.50;33.50
85148;PMS7003;75507;52.464;17.180;2024-03-08T05:22:13;70.00;51.50;33.00
85148;PMS7003;75507;52.464;17.180;2024-03-08T05:23:14;72.75;60.25;35.00
85148;PMS7003;75507;52.464;17.180;2024-03-08T05:24:14;71.50;57.50;34.00
85148;PMS7003;75507;52.464;17.180;2024-03-08T05:25:15;71.25;57.25;35.00
85148;PMS7003;75507;52.464;17.180;2024-03-08T05:26:16;72.25;57.00;34.25
85148;PMS7003;75507;52.464;17.180;2024-03-08T05:27:16;69.00;55.50;36.50
85148;PMS7003;75507;52.464;17.180;2024-03-08T05:28:16;74.25;55.50;35.25
85148;PMS7003;75507;52.464;17.180;2024-03-08T05:29:17;71.00;54.33;34.00
85148;PMS7003;75507;52.464;17.180;2024-03-08T05:30:18;74.20;56.60;35.00
85148;PMS7003;75507;52.464;17.180;2024-03-08T05:31:21;73.00;58.25;36.25
85148;PMS7003;75507;52.464;17.180;2024-03-08T05:32:22;72.80;56.40;34.40
85148;PMS7003;75507;52.464;17.180;2024-03-08T05:33:24;67.00;52.75;35.00
85148;PMS7003;75507;52.464;17.180;2024-03-08T05:34:25;78.50;59.25;34.75
85148;PMS7003;75507;52.464;17.180;2024-03-08T05:35:26;73.25;58.75;36.75
85148;PMS7003;75507;52.464;17.180;2024-03-08T05:36:26;74.50;58.25;34.50